sensor_id;sensor_type;location;lat;lon;timestamp;P1;durP1;ratioP1;P2;durP2;ratioP2
76063;SDS011;64762;52.006;8.424;2023-05-19T00:00:29;10.57;;;2.92;;
76063;SDS011;64762;52.006;8.424;2023-05-19T00:02:54;9.93;;;3.42;;
76063;SDS011;64762;52.006;8.424;2023-05-19T00:05:20;11.02;;;3.25;;
76063;SDS011;64762;52.006;8.424;2023-05-19T00:07:46;6.95;;;2.85;;
76063;SDS011;64762;52.006;8.424;2023-05-19T00:10:16;15.32;;;2.50;;
76063;SDS011;64762;52.006;8.424;2023-05-19T00:12:42;12.55;;;2.65;;
76063;SDS011;64762;52.006;8.424;2023-05-19T00:15:07;8.32;;;2.60;;
76063;SDS011;64762;52.006;8.424;2023-05-19T00:17:34;12.55;;;2.65;;
76063;SDS011;64762;52.006;8.424;2023-05-19T00:20:00;9.40;;;2.72;;
76063;SDS011;64762;52.006;8.424;2023-05-19T00:22:31;7.22;;;2.50;;
76063;SDS011;64762;52.006;8.424;2023-05-19T00:24:56;7.68;;;2.88;;
76063;SDS011;64762;52.006;8.424;2023-05-19T00:27:21;8.43;;;2.80;;
76063;SDS011;64762;52.006;8.424;2023-05-19T00:29:47;14.63;;;3.00;;
76063;SDS011;64762;52.006;8.424;2023-05-19T00:32:12;15.50;;;3.20;;
76063;SDS011;64762;52.006;8.424;2023-05-19T00:34:37;10.50;;;3.00;;
76063;SDS011;64762;52.006;8.424;2023-05-19T00:37:03;7.07;;;2.67;;
76063;SDS011;64762;52.006;8.424;2023-05-19T00:39:28;10.77;;;2.90;;
76063;SDS011;64762;52.006;8.424;2023-05-19T00:41:53;7.37;;;2.60;;
76063;SDS011;64762;52.006;8.424;2023-05-19T00:44:19;6.60;;;2.53;;
76063;SDS011;64762;52.006;8.424;2023-05-19T00:46:44;16.27;;;3.40;;
76063;SDS011;64762;52.006;8.424;2023-05-19T00:49:09;10.20;;;2.75;;
76063;SDS011;64762;52.006;8.424;2023-05-19T00:51:35;11.77;;;2.75;;
76063;SDS011;64762;52.006;8.424;2023-05-19T00:54:01;10.45;;;2.78;;
76063;SDS011;64762;52.006;8.424;2023-05-19T00:56:26;11.18;;;3.20;;
76063;SDS011;64762;52.006;8.424;2023-05-19T00:58:52;8.83;;;2.70;;
76063;SDS011;64762;52.006;8.424;2023-05-19T01:01:17;10.93;;;3.00;;
76063;SDS011;64762;52.006;8.424;2023-05-19T01:03:45;9.35;;;2.63;;
76063;SDS011;64762;52.006;8.424;2023-05-19T01:06:10;9.43;;;2.78;;
76063;SDS011;64762;52.006;8.424;2023-05-19T01:08:36;12.18;;;3.20;;
76063;SDS011;64762;52.006;8.424;2023-05-19T01:11:05;11.32;;;3.30;;
76063;SDS011;64762;52.006;8.424;2023-05-19T01:13:31;7.45;;;2.55;;
76063;SDS011;64762;52.006;8.424;2023-05-19T01:19:10;9.35;;;2.42;;
76063;SDS011;64762;52.006;8.424;2023-05-19T01:32:37;13.10;;;2.47;;
76063;SDS011;64762;52.006;8.424;2023-05-19T01:35:05;7.30;;;2.58;;
76063;SDS011;64762;52.006;8.424;2023-05-19T01:37:31;14.45;;;3.08;;
76063;SDS011;64762;52.006;8.424;2023-05-19T01:39:57;12.27;;;2.92;;
76063;SDS011;64762;52.006;8.424;2023-05-19T01:42:23;6.40;;;2.38;;
76063;SDS011;64762;52.006;8.424;2023-05-19T01:44:49;8.95;;;2.38;;
76063;SDS011;64762;52.006;8.424;2023-05-19T01:47:15;10.35;;;2.05;;
76063;SDS011;64762;52.006;8.424;2023-05-19T01:49:40;9.18;;;2.35;;
76063;SDS011;64762;52.006;8.424;2023-05-19T01:52:05;8.67;;;2.60;;
76063;SDS011;64762;52.006;8.424;2023-05-19T01:54:31;5.90;;;2.27;;
76063;SDS011;64762;52.006;8.424;2023-05-19T01:57:09;7.60;;;3.07;;
76063;SDS011;64762;52.006;8.424;2023-05-19T01:59:41;6.55;;;2.05;;
76063;SDS011;64762;52.006;8.424;2023-05-19T02:02:35;12.70;;;3.00;;
76063;SDS011;64762;52.006;8.424;2023-05-19T02:08:05;9.25;;;3.22;;
76063;SDS011;64762;52.006;8.424;2023-05-19T02:10:37;6.60;;;2.50;;
76063;SDS011;64762;52.006;8.424;2023-05-19T02:13:05;8.18;;;2.60;;
76063;SDS011;64762;52.006;8.424;2023-05-19T02:15:36;6.63;;;2.38;;
76063;SDS011;64762;52.006;8.424;2023-05-19T02:18:05;6.00;;;2.08;;
76063;SDS011;64762;52.006;8.424;2023-05-19T02:20:34;11.43;;;3.42;;
76063;SDS011;64762;52.006;8.424;2023-05-19T02:22:59;8.70;;;2.63;;
76063;SDS011;64762;52.006;8.424;2023-05-19T02:25:24;7.57;;;2.67;;
76063;SDS011;64762;52.006;8.424;2023-05-19T02:27:51;9.90;;;2.63;;
76063;SDS011;64762;52.006;8.424;2023-05-19T02:30:16;10.80;;;3.25;;
76063;SDS011;64762;52.006;8.424;2023-05-19T02:32:42;9.33;;;2.53;;
76063;SDS011;64762;52.006;8.424;2023-05-19T02:35:10;10.63;;;3.10;;
76063;SDS011;64762;52.006;8.424;2023-05-19T02:37:36;7.30;;;2.30;;
76063;SDS011;64762;52.006;8.424;2023-05-19T02:40:01;13.37;;;3.20;;
76063;SDS011;64762;52.006;8.424;2023-05-19T02:42:28;7.80;;;2.40;;
76063;SDS011;64762;52.006;8.424;2023-05-19T02:44:54;9.47;;;2.60;;
76063;SDS011;64762;52.006;8.424;2023-05-19T02:47:19;9.85;;;2.60;;
76063;SDS011;64762;52.006;8.424;2023-05-19T02:49:44;17.57;;;2.80;;
76063;SDS011;64762;52.006;8.424;2023-05-19T02:52:10;12.37;;;3.20;;
76063;SDS011;64762;52.006;8.424;2023-05-19T02:54:36;9.70;;;2.92;;
76063;SDS011;64762;52.006;8.424;2023-05-19T02:57:01;12.40;;;3.37;;
76063;SDS011;64762;52.006;8.424;2023-05-19T02:59:26;10.35;;;2.60;;
76063;SDS011;64762;52.006;8.424;2023-05-19T03:01:53;14.77;;;2.97;;
76063;SDS011;64762;52.006;8.424;2023-05-19T03:04:20;8.48;;;2.83;;
76063;SDS011;64762;52.006;8.424;2023-05-19T03:06:45;11.23;;;3.63;;
76063;SDS011;64762;52.006;8.424;2023-05-19T03:09:11;9.85;;;2.70;;
76063;SDS011;64762;52.006;8.424;2023-05-19T03:11:37;16.10;;;3.35;;
76063;SDS011;64762;52.006;8.424;2023-05-19T03:14:03;10.70;;;2.63;;
76063;SDS011;64762;52.006;8.424;2023-05-19T03:16:28;8.50;;;2.70;;
76063;SDS011;64762;52.006;8.424;2023-05-19T03:18:53;11.93;;;2.80;;
76063;SDS011;64762;52.006;8.424;2023-05-19T03:21:19;8.45;;;2.90;;
76063;SDS011;64762;52.006;8.424;2023-05-19T03:23:44;9.47;;;3.83;;
76063;SDS011;64762;52.006;8.424;2023-05-19T03:26:10;9.60;;;3.00;;
76063;SDS011;64762;52.006;8.424;2023-05-19T03:28:36;8.93;;;3.10;;
76063;SDS011;64762;52.006;8.424;2023-05-19T03:31:01;16.53;;;3.20;;
76063;SDS011;64762;52.006;8.424;2023-05-19T03:33:27;12.20;;;3.45;;
76063;SDS011;64762;52.006;8.424;2023-05-19T03:35:53;12.23;;;3.15;;
76063;SDS011;64762;52.006;8.424;2023-05-19T03:38:19;7.53;;;2.70;;
76063;SDS011;64762;52.006;8.424;2023-05-19T03:40:45;10.23;;;3.50;;
76063;SDS011;64762;52.006;8.424;2023-05-19T03:43:10;10.60;;;2.93;;
76063;SDS011;64762;52.006;8.424;2023-05-19T03:45:35;8.67;;;3.00;;
76063;SDS011;64762;52.006;8.424;2023-05-19T03:48:01;14.20;;;3.40;;
76063;SDS011;64762;52.006;8.424;2023-05-19T03:50:26;6.93;;;2.57;;
76063;SDS011;64762;52.006;8.424;2023-05-19T03:52:52;8.02;;;2.85;;
76063;SDS011;64762;52.006;8.424;2023-05-19T03:55:19;11.68;;;3.40;;
76063;SDS011;64762;52.006;8.424;2023-05-19T03:57:45;10.30;;;3.22;;
76063;SDS011;64762;52.006;8.424;2023-05-19T04:00:10;9.33;;;2.70;;
76063;SDS011;64762;52.006;8.424;2023-05-19T04:02:36;9.23;;;3.15;;
76063;SDS011;64762;52.006;8.424;2023-05-19T04:05:01;14.83;;;3.00;;
76063;SDS011;64762;52.006;8.424;2023-05-19T04:07:29;4.20;;;1.88;;
76063;SDS011;64762;52.006;8.424;2023-05-19T04:09:55;13.27;;;3.20;;
76063;SDS011;64762;52.006;8.424;2023-05-19T04:12:20;7.93;;;2.30;;
76063;SDS011;64762;52.006;8.424;2023-05-19T04:14:45;6.77;;;2.60;;
76063;SDS011;64762;52.006;8.424;2023-05-19T04:17:11;8.53;;;3.03;;
76063;SDS011;64762;52.006;8.424;2023-05-19T04:19:36;5.10;;;2.50;;
76063;SDS011;64762;52.006;8.424;2023-05-19T04:22:01;7.00;;;2.77;;
76063;SDS011;64762;52.006;8.424;2023-05-19T04:24:27;9.00;;;3.23;;
76063;SDS011;64762;52.006;8.424;2023-05-19T04:26:52;8.00;;;3.30;;
76063;SDS011;64762;52.006;8.424;2023-05-19T04:29:17;10.53;;;3.00;;
76063;SDS011;64762;52.006;8.424;2023-05-19T04:31:43;7.75;;;2.55;;
76063;SDS011;64762;52.006;8.424;2023-05-19T04:34:11;11.43;;;2.60;;
76063;SDS011;64762;52.006;8.424;2023-05-19T04:36:36;6.97;;;3.10;;
76063;SDS011;64762;52.006;8.424;2023-05-19T04:39:02;6.82;;;1.85;;
76063;SDS011;64762;52.006;8.424;2023-05-19T04:41:31;10.77;;;3.00;;
76063;SDS011;64762;52.006;8.424;2023-05-19T04:43:57;11.50;;;2.83;;
76063;SDS011;64762;52.006;8.424;2023-05-19T04:46:23;8.05;;;2.50;;
76063;SDS011;64762;52.006;8.424;2023-05-19T04:48:49;11.60;;;3.50;;
76063;SDS011;64762;52.006;8.424;2023-05-19T04:51:15;7.07;;;2.60;;
76063;SDS011;64762;52.006;8.424;2023-05-19T04:53:41;13.18;;;3.30;;
76063;SDS011;64762;52.006;8.424;2023-05-19T04:56:08;10.65;;;2.95;;
76063;SDS011;64762;52.006;8.424;2023-05-19T04:58:33;12.02;;;2.92;;
76063;SDS011;64762;52.006;8.424;2023-05-19T05:00:59;10.73;;;3.03;;
76063;SDS011;64762;52.006;8.424;2023-05-19T05:03:24;7.20;;;2.60;;
76063;SDS011;64762;52.006;8.424;2023-05-19T05:05:50;8.27;;;2.70;;
76063;SDS011;64762;52.006;8.424;2023-05-19T05:08:16;5.55;;;2.88;;
76063;SDS011;64762;52.006;8.424;2023-05-19T05:10:47;9.20;;;2.58;;
76063;SDS011;64762;52.006;8.424;2023-05-19T05:13:16;10.18;;;3.03;;
76063;SDS011;64762;52.006;8.424;2023-05-19T05:15:46;10.10;;;2.70;;
76063;SDS011;64762;52.006;8.424;2023-05-19T05:18:12;9.15;;;2.97;;
76063;SDS011;64762;52.006;8.424;2023-05-19T05:20:39;9.68;;;2.80;;
76063;SDS011;64762;52.006;8.424;2023-05-19T05:23:05;10.88;;;2.70;;
76063;SDS011;64762;52.006;8.424;2023-05-19T05:25:33;8.85;;;2.83;;
76063;SDS011;64762;52.006;8.424;2023-05-19T05:27:59;10.05;;;2.88;;
76063;SDS011;64762;52.006;8.424;2023-05-19T05:30:28;10.98;;;3.30;;
76063;SDS011;64762;52.006;8.424;2023-05-19T05:32:54;10.97;;;2.93;;
76063;SDS011;64762;52.006;8.424;2023-05-19T05:35:19;8.45;;;3.08;;
76063;SDS011;64762;52.006;8.424;2023-05-19T05:37:47;8.10;;;2.42;;
76063;SDS011;64762;52.006;8.424;2023-05-19T05:40:12;6.20;;;2.72;;
76063;SDS011;64762;52.006;8.424;2023-05-19T05:42:38;15.50;;;3.30;;
76063;SDS011;64762;52.006;8.424;2023-05-19T05:45:03;10.90;;;3.00;;
76063;SDS011;64762;52.006;8.424;2023-05-19T05:47:29;7.70;;;2.78;;
76063;SDS011;64762;52.006;8.424;2023-05-19T05:49:55;13.63;;;2.75;;
76063;SDS011;64762;52.006;8.424;2023-05-19T05:52:20;12.00;;;3.17;;
76063;SDS011;64762;52.006;8.424;2023-05-19T05:54:46;9.35;;;2.83;;
76063;SDS011;64762;52.006;8.424;2023-05-19T05:57:12;6.88;;;3.22;;
76063;SDS011;64762;52.006;8.424;2023-05-19T05:59:38;8.32;;;2.10;;
76063;SDS011;64762;52.006;8.424;2023-05-19T06:02:05;6.47;;;2.58;;
76063;SDS011;64762;52.006;8.424;2023-05-19T06:04:31;7.28;;;2.75;;
76063;SDS011;64762;52.006;8.424;2023-05-19T06:06:56;7.67;;;3.30;;
76063;SDS011;64762;52.006;8.424;2023-05-19T06:09:25;7.80;;;2.58;;
76063;SDS011;64762;52.006;8.424;2023-05-19T06:11:50;9.40;;;2.63;;
76063;SDS011;64762;52.006;8.424;2023-05-19T06:14:16;8.20;;;2.50;;
76063;SDS011;64762;52.006;8.424;2023-05-19T06:16:41;10.20;;;3.10;;
76063;SDS011;64762;52.006;8.424;2023-05-19T06:19:06;12.73;;;3.20;;
76063;SDS011;64762;52.006;8.424;2023-05-19T06:21:32;12.43;;;3.00;;
76063;SDS011;64762;52.006;8.424;2023-05-19T06:23:57;10.40;;;3.03;;
76063;SDS011;64762;52.006;8.424;2023-05-19T06:26:22;8.97;;;2.80;;
76063;SDS011;64762;52.006;8.424;2023-05-19T06:28:48;13.10;;;4.30;;
76063;SDS011;64762;52.006;8.424;2023-05-19T06:31:13;11.00;;;2.90;;
76063;SDS011;64762;52.006;8.424;2023-05-19T06:33:38;9.17;;;2.60;;
76063;SDS011;64762;52.006;8.424;2023-05-19T06:36:04;12.77;;;3.30;;
76063;SDS011;64762;52.006;8.424;2023-05-19T06:38:29;13.18;;;4.57;;
76063;SDS011;64762;52.006;8.424;2023-05-19T06:40:55;10.18;;;3.00;;
76063;SDS011;64762;52.006;8.424;2023-05-19T06:43:20;20.87;;;3.73;;
76063;SDS011;64762;52.006;8.424;2023-05-19T06:45:46;10.00;;;3.00;;
76063;SDS011;64762;52.006;8.424;2023-05-19T06:48:11;8.53;;;2.70;;
76063;SDS011;64762;52.006;8.424;2023-05-19T06:50:36;10.63;;;3.20;;
76063;SDS011;64762;52.006;8.424;2023-05-19T06:53:02;9.53;;;2.80;;
76063;SDS011;64762;52.006;8.424;2023-05-19T06:55:27;6.27;;;2.70;;
76063;SDS011;64762;52.006;8.424;2023-05-19T06:57:52;9.60;;;3.23;;
76063;SDS011;64762;52.006;8.424;2023-05-19T07:00:18;9.43;;;2.70;;
76063;SDS011;64762;52.006;8.424;2023-05-19T07:02:43;6.67;;;2.67;;
76063;SDS011;64762;52.006;8.424;2023-05-19T07:05:08;10.00;;;2.60;;
76063;SDS011;64762;52.006;8.424;2023-05-19T07:07:34;11.88;;;2.80;;
76063;SDS011;64762;52.006;8.424;2023-05-19T07:09:59;5.95;;;2.63;;
76063;SDS011;64762;52.006;8.424;2023-05-19T07:12:25;13.43;;;2.87;;
76063;SDS011;64762;52.006;8.424;2023-05-19T07:14:50;7.97;;;2.50;;
76063;SDS011;64762;52.006;8.424;2023-05-19T07:17:16;7.60;;;3.28;;
76063;SDS011;64762;52.006;8.424;2023-05-19T07:19:41;7.60;;;2.87;;
76063;SDS011;64762;52.006;8.424;2023-05-19T07:22:07;11.70;;;3.70;;
76063;SDS011;64762;52.006;8.424;2023-05-19T07:24:32;11.00;;;3.10;;
76063;SDS011;64762;52.006;8.424;2023-05-19T07:26:57;10.47;;;2.63;;
76063;SDS011;64762;52.006;8.424;2023-05-19T07:29:22;8.27;;;3.00;;
76063;SDS011;64762;52.006;8.424;2023-05-19T07:31:48;8.90;;;2.80;;
76063;SDS011;64762;52.006;8.424;2023-05-19T07:34:17;9.30;;;3.15;;
76063;SDS011;64762;52.006;8.424;2023-05-19T07:36:43;9.10;;;2.63;;
76063;SDS011;64762;52.006;8.424;2023-05-19T07:39:08;10.97;;;2.87;;
76063;SDS011;64762;52.006;8.424;2023-05-19T07:41:34;11.82;;;2.80;;
76063;SDS011;64762;52.006;8.424;2023-05-19T07:43:59;10.27;;;2.73;;
76063;SDS011;64762;52.006;8.424;2023-05-19T07:46:24;7.45;;;2.33;;
76063;SDS011;64762;52.006;8.424;2023-05-19T07:48:50;10.47;;;2.90;;
76063;SDS011;64762;52.006;8.424;2023-05-19T07:51:15;5.67;;;2.40;;
76063;SDS011;64762;52.006;8.424;2023-05-19T07:53:40;8.93;;;2.83;;
76063;SDS011;64762;52.006;8.424;2023-05-19T07:56:06;8.90;;;2.60;;
76063;SDS011;64762;52.006;8.424;2023-05-19T07:58:31;6.00;;;2.50;;
76063;SDS011;64762;52.006;8.424;2023-05-19T08:00:57;11.93;;;2.87;;
76063;SDS011;64762;52.006;8.424;2023-05-19T08:03:23;10.25;;;3.35;;
76063;SDS011;64762;52.006;8.424;2023-05-19T08:05:48;5.55;;;2.00;;
76063;SDS011;64762;52.006;8.424;2023-05-19T08:08:14;8.17;;;2.30;;
76063;SDS011;64762;52.006;8.424;2023-05-19T08:10:40;7.80;;;2.33;;
76063;SDS011;64762;52.006;8.424;2023-05-19T08:13:06;6.82;;;2.15;;
76063;SDS011;64762;52.006;8.424;2023-05-19T08:15:31;11.00;;;2.97;;
76063;SDS011;64762;52.006;8.424;2023-05-19T08:17:56;6.73;;;1.90;;
76063;SDS011;64762;52.006;8.424;2023-05-19T08:20:22;9.20;;;1.90;;
76063;SDS011;64762;52.006;8.424;2023-05-19T08:22:48;8.02;;;2.17;;
76063;SDS011;64762;52.006;8.424;2023-05-19T08:25:13;5.85;;;2.10;;
76063;SDS011;64762;52.006;8.424;2023-05-19T08:27:39;7.03;;;2.47;;
76063;SDS011;64762;52.006;8.424;2023-05-19T08:30:04;11.15;;;2.42;;
76063;SDS011;64762;52.006;8.424;2023-05-19T08:32:30;6.88;;;2.63;;
76063;SDS011;64762;52.006;8.424;2023-05-19T08:34:55;6.63;;;2.35;;
76063;SDS011;64762;52.006;8.424;2023-05-19T08:37:21;8.07;;;2.10;;
76063;SDS011;64762;52.006;8.424;2023-05-19T08:39:46;8.07;;;2.57;;
76063;SDS011;64762;52.006;8.424;2023-05-19T08:42:11;11.23;;;2.60;;
76063;SDS011;64762;52.006;8.424;2023-05-19T08:44:37;11.63;;;2.40;;
76063;SDS011;64762;52.006;8.424;2023-05-19T08:47:03;6.55;;;1.90;;
76063;SDS011;64762;52.006;8.424;2023-05-19T08:49:31;8.20;;;2.07;;
76063;SDS011;64762;52.006;8.424;2023-05-19T08:54:56;10.55;;;2.30;;
76063;SDS011;64762;52.006;8.424;2023-05-19T08:57:26;6.78;;;2.20;;
76063;SDS011;64762;52.006;8.424;2023-05-19T08:59:52;7.47;;;2.20;;
76063;SDS011;64762;52.006;8.424;2023-05-19T09:02:18;9.77;;;2.25;;
76063;SDS011;64762;52.006;8.424;2023-05-19T09:04:43;6.00;;;1.83;;
76063;SDS011;64762;52.006;8.424;2023-05-19T09:07:12;8.00;;;2.00;;
76063;SDS011;64762;52.006;8.424;2023-05-19T09:09:38;6.10;;;1.73;;
76063;SDS011;64762;52.006;8.424;2023-05-19T09:12:07;6.03;;;2.10;;
76063;SDS011;64762;52.006;8.424;2023-05-19T09:14:32;7.40;;;1.80;;
76063;SDS011;64762;52.006;8.424;2023-05-19T09:16:58;9.65;;;1.83;;
76063;SDS011;64762;52.006;8.424;2023-05-19T09:19:23;8.67;;;2.00;;
76063;SDS011;64762;52.006;8.424;2023-05-19T09:21:59;8.20;;;1.90;;
76063;SDS011;64762;52.006;8.424;2023-05-19T09:24:25;9.23;;;1.88;;
76063;SDS011;64762;52.006;8.424;2023-05-19T09:26:50;9.85;;;1.85;;
76063;SDS011;64762;52.006;8.424;2023-05-19T09:29:19;5.78;;;1.83;;
76063;SDS011;64762;52.006;8.424;2023-05-19T09:31:48;9.70;;;2.23;;
76063;SDS011;64762;52.006;8.424;2023-05-19T09:36:39;4.57;;;1.80;;
76063;SDS011;64762;52.006;8.424;2023-05-19T09:39:15;6.00;;;2.00;;
76063;SDS011;64762;52.006;8.424;2023-05-19T09:41:42;10.32;;;1.83;;
76063;SDS011;64762;52.006;8.424;2023-05-19T09:46:48;8.88;;;2.70;;
76063;SDS011;64762;52.006;8.424;2023-05-19T09:49:23;4.90;;;1.70;;
76063;SDS011;64762;52.006;8.424;2023-05-19T09:51:57;6.43;;;1.70;;
76063;SDS011;64762;52.006;8.424;2023-05-19T09:54:23;6.05;;;1.98;;
76063;SDS011;64762;52.006;8.424;2023-05-19T09:56:59;4.35;;;1.77;;
76063;SDS011;64762;52.006;8.424;2023-05-19T09:59:25;4.75;;;1.80;;
76063;SDS011;64762;52.006;8.424;2023-05-19T10:01:55;6.97;;;1.85;;
76063;SDS011;64762;52.006;8.424;2023-05-19T10:04:22;4.30;;;1.73;;
76063;SDS011;64762;52.006;8.424;2023-05-19T10:06:48;9.35;;;1.98;;
76063;SDS011;64762;52.006;8.424;2023-05-19T10:09:19;5.05;;;1.70;;
76063;SDS011;64762;52.006;8.424;2023-05-19T10:11:46;7.75;;;2.05;;
76063;SDS011;64762;52.006;8.424;2023-05-19T10:14:12;7.53;;;2.15;;
76063;SDS011;64762;52.006;8.424;2023-05-19T10:16:37;7.97;;;2.13;;
76063;SDS011;64762;52.006;8.424;2023-05-19T10:19:02;7.38;;;1.45;;
76063;SDS011;64762;52.006;8.424;2023-05-19T10:21:28;7.43;;;1.73;;
76063;SDS011;64762;52.006;8.424;2023-05-19T10:23:54;6.85;;;1.67;;
76063;SDS011;64762;52.006;8.424;2023-05-19T10:26:19;4.60;;;1.60;;
76063;SDS011;64762;52.006;8.424;2023-05-19T10:28:45;4.63;;;1.48;;
76063;SDS011;64762;52.006;8.424;2023-05-19T10:31:11;5.82;;;1.67;;
76063;SDS011;64762;52.006;8.424;2023-05-19T10:33:45;7.15;;;1.67;;
76063;SDS011;64762;52.006;8.424;2023-05-19T10:36:30;8.02;;;1.48;;
76063;SDS011;64762;52.006;8.424;2023-05-19T10:39:05;8.25;;;1.95;;
76063;SDS011;64762;52.006;8.424;2023-05-19T10:41:53;8.38;;;1.60;;
76063;SDS011;64762;52.006;8.424;2023-05-19T10:47:31;6.63;;;1.90;;
76063;SDS011;64762;52.006;8.424;2023-05-19T10:49:59;8.93;;;1.95;;
76063;SDS011;64762;52.006;8.424;2023-05-19T10:52:24;7.45;;;1.90;;
76063;SDS011;64762;52.006;8.424;2023-05-19T10:54:50;7.03;;;2.13;;
76063;SDS011;64762;52.006;8.424;2023-05-19T10:57:19;7.28;;;1.90;;
76063;SDS011;64762;52.006;8.424;2023-05-19T10:59:45;5.97;;;2.00;;
76063;SDS011;64762;52.006;8.424;2023-05-19T11:02:35;7.15;;;1.90;;
76063;SDS011;64762;52.006;8.424;2023-05-19T11:07:43;8.32;;;1.95;;
76063;SDS011;64762;52.006;8.424;2023-05-19T11:10:09;5.18;;;1.67;;
76063;SDS011;64762;52.006;8.424;2023-05-19T11:12:41;5.20;;;1.90;;
76063;SDS011;64762;52.006;8.424;2023-05-19T11:15:10;8.07;;;1.90;;
76063;SDS011;64762;52.006;8.424;2023-05-19T11:17:39;6.57;;;1.90;;
76063;SDS011;64762;52.006;8.424;2023-05-19T11:20:06;7.25;;;1.80;;
76063;SDS011;64762;52.006;8.424;2023-05-19T11:22:34;5.40;;;2.20;;
76063;SDS011;64762;52.006;8.424;2023-05-19T11:25:00;5.18;;;2.00;;
76063;SDS011;64762;52.006;8.424;2023-05-19T11:27:30;10.17;;;2.40;;
76063;SDS011;64762;52.006;8.424;2023-05-19T11:30:10;7.10;;;2.28;;
76063;SDS011;64762;52.006;8.424;2023-05-19T11:32:38;4.53;;;1.70;;
76063;SDS011;64762;52.006;8.424;2023-05-19T11:35:06;5.05;;;1.80;;
76063;SDS011;64762;52.006;8.424;2023-05-19T11:37:32;4.72;;;1.63;;
76063;SDS011;64762;52.006;8.424;2023-05-19T11:40:00;5.38;;;1.83;;
76063;SDS011;64762;52.006;8.424;2023-05-19T11:42:25;4.50;;;1.63;;
76063;SDS011;64762;52.006;8.424;2023-05-19T11:44:53;5.50;;;1.70;;
76063;SDS011;64762;52.006;8.424;2023-05-19T11:47:19;7.95;;;1.88;;
76063;SDS011;64762;52.006;8.424;2023-05-19T11:49:48;9.05;;;1.70;;
76063;SDS011;64762;52.006;8.424;2023-05-19T11:52:14;7.20;;;2.00;;
76063;SDS011;64762;52.006;8.424;2023-05-19T11:54:39;4.50;;;1.87;;
76063;SDS011;64762;52.006;8.424;2023-05-19T11:57:07;6.05;;;1.70;;
76063;SDS011;64762;52.006;8.424;2023-05-19T11:59:34;4.15;;;1.73;;
76063;SDS011;64762;52.006;8.424;2023-05-19T12:02:02;5.22;;;1.70;;
76063;SDS011;64762;52.006;8.424;2023-05-19T12:04:40;6.03;;;1.65;;
76063;SDS011;64762;52.006;8.424;2023-05-19T12:07:05;6.70;;;2.20;;
76063;SDS011;64762;52.006;8.424;2023-05-19T12:09:30;4.43;;;1.70;;
76063;SDS011;64762;52.006;8.424;2023-05-19T12:11:56;4.53;;;2.10;;
76063;SDS011;64762;52.006;8.424;2023-05-19T12:14:22;8.52;;;2.10;;
76063;SDS011;64762;52.006;8.424;2023-05-19T12:16:47;10.03;;;2.03;;
76063;SDS011;64762;52.006;8.424;2023-05-19T12:19:12;6.73;;;1.73;;
76063;SDS011;64762;52.006;8.424;2023-05-19T12:21:38;5.33;;;1.50;;
76063;SDS011;64762;52.006;8.424;2023-05-19T12:24:03;5.10;;;1.60;;
76063;SDS011;64762;52.006;8.424;2023-05-19T12:26:29;3.50;;;1.55;;
76063;SDS011;64762;52.006;8.424;2023-05-19T12:28:55;9.57;;;3.10;;
76063;SDS011;64762;52.006;8.424;2023-05-19T12:31:20;6.30;;;2.03;;
76063;SDS011;64762;52.006;8.424;2023-05-19T12:33:48;4.90;;;1.42;;
76063;SDS011;64762;52.006;8.424;2023-05-19T12:36:17;5.28;;;2.10;;
76063;SDS011;64762;52.006;8.424;2023-05-19T12:38:43;9.02;;;1.92;;
76063;SDS011;64762;52.006;8.424;2023-05-19T12:41:12;4.60;;;1.77;;
76063;SDS011;64762;52.006;8.424;2023-05-19T12:43:39;5.20;;;1.70;;
76063;SDS011;64762;52.006;8.424;2023-05-19T12:46:11;5.65;;;2.00;;
76063;SDS011;64762;52.006;8.424;2023-05-19T12:48:41;7.60;;;2.00;;
76063;SDS011;64762;52.006;8.424;2023-05-19T12:51:07;4.85;;;1.85;;
76063;SDS011;64762;52.006;8.424;2023-05-19T12:53:32;7.10;;;2.33;;
76063;SDS011;64762;52.006;8.424;2023-05-19T12:55:58;3.88;;;1.70;;
76063;SDS011;64762;52.006;8.424;2023-05-19T12:58:23;5.00;;;1.97;;
76063;SDS011;64762;52.006;8.424;2023-05-19T13:00:49;8.37;;;1.97;;
76063;SDS011;64762;52.006;8.424;2023-05-19T13:03:16;6.20;;;1.90;;
76063;SDS011;64762;52.006;8.424;2023-05-19T13:05:43;6.75;;;1.67;;
76063;SDS011;64762;52.006;8.424;2023-05-19T13:08:20;6.05;;;2.15;;
76063;SDS011;64762;52.006;8.424;2023-05-19T13:10:47;6.13;;;2.15;;
76063;SDS011;64762;52.006;8.424;2023-05-19T13:13:13;5.93;;;2.00;;
76063;SDS011;64762;52.006;8.424;2023-05-19T13:15:39;6.30;;;2.08;;
76063;SDS011;64762;52.006;8.424;2023-05-19T13:18:06;5.18;;;1.90;;
76063;SDS011;64762;52.006;8.424;2023-05-19T13:20:33;9.38;;;2.50;;
76063;SDS011;64762;52.006;8.424;2023-05-19T13:22:59;6.05;;;1.70;;
76063;SDS011;64762;52.006;8.424;2023-05-19T13:25:24;5.72;;;2.10;;
76063;SDS011;64762;52.006;8.424;2023-05-19T13:27:50;6.88;;;1.83;;
76063;SDS011;64762;52.006;8.424;2023-05-19T13:30:16;6.37;;;2.70;;
76063;SDS011;64762;52.006;8.424;2023-05-19T13:32:42;4.35;;;1.65;;
76063;SDS011;64762;52.006;8.424;2023-05-19T13:35:08;6.63;;;2.10;;
76063;SDS011;64762;52.006;8.424;2023-05-19T13:37:33;6.80;;;1.92;;
76063;SDS011;64762;52.006;8.424;2023-05-19T13:39:58;7.57;;;2.80;;
76063;SDS011;64762;52.006;8.424;2023-05-19T13:42:24;7.83;;;2.23;;
76063;SDS011;64762;52.006;8.424;2023-05-19T13:44:52;5.37;;;2.20;;
76063;SDS011;64762;52.006;8.424;2023-05-19T13:47:18;6.65;;;2.15;;
76063;SDS011;64762;52.006;8.424;2023-05-19T13:49:43;6.13;;;2.50;;
76063;SDS011;64762;52.006;8.424;2023-05-19T13:52:08;5.80;;;2.17;;
76063;SDS011;64762;52.006;8.424;2023-05-19T13:54:35;5.13;;;1.98;;
76063;SDS011;64762;52.006;8.424;2023-05-19T13:57:00;8.60;;;1.80;;
76063;SDS011;64762;52.006;8.424;2023-05-19T13:59:25;5.50;;;2.30;;
76063;SDS011;64762;52.006;8.424;2023-05-19T14:01:52;5.50;;;2.15;;
76063;SDS011;64762;52.006;8.424;2023-05-19T14:04:17;6.40;;;1.80;;
76063;SDS011;64762;52.006;8.424;2023-05-19T14:06:43;5.35;;;2.10;;
76063;SDS011;64762;52.006;8.424;2023-05-19T14:09:08;5.45;;;2.28;;
76063;SDS011;64762;52.006;8.424;2023-05-19T14:11:34;6.53;;;2.27;;
76063;SDS011;64762;52.006;8.424;2023-05-19T14:13:59;5.70;;;2.20;;
76063;SDS011;64762;52.006;8.424;2023-05-19T14:16:24;5.87;;;2.10;;
76063;SDS011;64762;52.006;8.424;2023-05-19T14:18:51;7.45;;;2.33;;
76063;SDS011;64762;52.006;8.424;2023-05-19T14:21:16;2.93;;;1.33;;
76063;SDS011;64762;52.006;8.424;2023-05-19T14:23:41;6.63;;;2.60;;
76063;SDS011;64762;52.006;8.424;2023-05-19T14:26:07;6.03;;;2.00;;
76063;SDS011;64762;52.006;8.424;2023-05-19T14:28:32;6.33;;;2.40;;
76063;SDS011;64762;52.006;8.424;2023-05-19T14:30:57;5.67;;;2.20;;
76063;SDS011;64762;52.006;8.424;2023-05-19T14:33:23;8.03;;;3.70;;
76063;SDS011;64762;52.006;8.424;2023-05-19T14:35:48;6.95;;;2.25;;
76063;SDS011;64762;52.006;8.424;2023-05-19T14:38:13;6.17;;;2.63;;
76063;SDS011;64762;52.006;8.424;2023-05-19T14:40:39;5.88;;;2.33;;
76063;SDS011;64762;52.006;8.424;2023-05-19T14:43:08;7.32;;;2.10;;
76063;SDS011;64762;52.006;8.424;2023-05-19T14:45:33;7.78;;;3.08;;
76063;SDS011;64762;52.006;8.424;2023-05-19T14:47:59;4.57;;;1.85;;
76063;SDS011;64762;52.006;8.424;2023-05-19T14:50:24;4.55;;;1.95;;
76063;SDS011;64762;52.006;8.424;2023-05-19T14:52:51;4.97;;;2.15;;
76063;SDS011;64762;52.006;8.424;2023-05-19T14:55:17;7.40;;;2.57;;
76063;SDS011;64762;52.006;8.424;2023-05-19T14:57:42;5.17;;;1.97;;
76063;SDS011;64762;52.006;8.424;2023-05-19T15:00:07;5.33;;;1.50;;
76063;SDS011;64762;52.006;8.424;2023-05-19T15:02:34;4.32;;;1.80;;
76063;SDS011;64762;52.006;8.424;2023-05-19T15:04:59;5.63;;;2.05;;
76063;SDS011;64762;52.006;8.424;2023-05-19T15:07:25;4.40;;;1.47;;
76063;SDS011;64762;52.006;8.424;2023-05-19T15:09:51;4.38;;;1.85;;